Terminal Aerodrome Forecast
Issued by NWS Louisville, KY

Home | Current Version | Previous Version | Text Only | Print | Product List | Glossary On
Versions: 1 2 3 4 5 6 7 8 9 10 11 12 13 14 15 16
873
FTUS43 KLMK 300520
TAFLEX
TAF
KLEX 300520Z 3006/0106 17008KT P6SM SHRA SCT015 OVC040
     FM300800 18006KT 4SM SHRA BR BKN012
     FM301500 23006KT P6SM VCSH SCT012 BKN025
     FM302200 23013KT P6SM BKN030=

USA.gov is the U.S. government's official web portal to all federal, state and local government web resources and services.